Pagrindinis puslapis
METAR-TAF:

METAR-TAF

Oro uostai :

Hefėjus, Kinija

platuma: 31-52N, ilguma: 117-14E, Aukštis: 36 m

Dabartinis oras

Ataskaita buvo paskelbta 37 minutes, ne 04:00 UTC
Vėjas 14 kt iš Šiaurės Vakarų
Temperatūra 19°C
Drėgmė 49%
Slėgis 1025 hPa
Matomumas 10 km arba daugiau
nėra debesų žemiau 1500 m ir nėra kamuolinių lietaus debesų

METAR: ZSOF 130400Z 32007MPS CAVOK 19/08 Q1025 NOSIG

Laikas: 12:37 (04:37 UTC)

Prognozė

Ataskaita buvo paskelbta 9 valandos ir 34 minutes, ne 19:03 UTC
Prognozė galioja nuo 13 metu 00 UTC su 13 metu 24 UTC
Vėjas 14 kt iš Šiaurės Vakarų
Matomumas: 6000 m
Tapsmas
nuo 13 metu 14 UTC su 13 metu 15 UTC
Vėjas 6 kt iš Šiaurės/Šiaurės Rytų

TAF: ZSOF 121903Z 1300/1324 32007MPS 6000 NSC TX20/1307Z TN06/1322Z BECMG 1314/1315 03003MPS

Orai ataskaitas ir orų prognozės (METAR, TAF).

turimą stotys yra geltonos ir raudonos taškus žemėlapyje.

Perkelti pele per norėdami pamatyti stoties vardą.

Tada spustelėkite, norėdami matyti oro stebėjimo ir prognozės.

Norėdami pakeisti žemėlapį: spustelėkite ant žalios mygtukų su juodo kryžiaus žemyn,; žalią mygtuką su brūkšneliu, jei norite nutolinti; arba žalių rodyklių gretimoms žemėlapius.


METAR-TAF: